KBGR/BGR METAR and TAF weather

Enter ICAO airport designator
Station Type Date Time Source
KBGR METAR 2021/09/24 04:53 UTC NOAA

KBGR 240453Z 13006KT 6SM BR OVC006 19/18 A3017 RMK AO2 SLP214 T01940183 402500172


Station Type Date Time Source
KBGR Decoded METAR 2021/09/24 04:53 UTC NOAA

BANGOR INT'L AIRPORT, ME, United States (KBGR) 44-48N 068-49W 57M
Sep 24, 2021 - 12:53 AM EDT / 2021.09.24 0453 UTC
Wind: from the SE (130 degrees) at 7 MPH (6 KT):0
Visibility: 6 mile(s):0
Sky conditions: overcast
Weather: mist
Temperature: 66.9 F (19.4 C)
Dew Point: 64.9 F (18.3 C)
Relative Humidity: 93%
Pressure (altimeter): 30.17 in. Hg (1021 hPa)
ob: KBGR 240453Z 13006KT 6SM BR OVC006 19/18 A3017 RMK AO2 SLP214 T01940183 402500172
cycle: 5

Station Type Date Time Source
KBGR TAF 2021/09/24 05:45 UTC NOAA

TAF
AMD KBGR 240443Z 2405/2424 14007KT 3SM BR OVC005
FM241300 15008KT P6SM VCSH BKN010
FM242300 15010G18KT 5SM -SHRA OVC009

Example: see airport list